High Tide — D5AA7 — position and weather

sailwx.info

Track history (hours):
 
Tides and Currents Weather Stations Pressure Air Temp Water Temp Dewpoint Dewpoint Depression Visibility Wind Speed Wind Dir Waves Ship Positions

High Tide

Last reported at 2015-Aug-03 03:19 UTC. Time now 2015-Aug-28 14:46 UTC.
Position S 32°35' E 152°53'.
Warning: this ship's position is 25 days out of date.

Length 183 m; draft 10.7 m.

Type: Tanker. MMSI: 636015337.

Date/timePositionNaut miles runAvg speedWind from/ knotsBaromVisibWave heightAir tempDewpointWater temp
2015-Aug-03 03:19S 32°35' E 152°53'810.6
2015-Aug-03 02:33S 32°42' E 152°49'1310.6
2015-Aug-03 01:21S 32°51' E 152°38'910.8
2015-Aug-03 00:30S 32°59' E 152°32'1111.6
2015-Aug-02 23:31S 33°07' E 152°23'  
2015-Jul-27 21:33S 33°07' E 152°21'10 9.9
2015-Jul-27 20:33S 32°60' E 152°29'1010.0
2015-Jul-27 19:33S 32°52' E 152°37'1010.2
2015-Jul-27 18:33S 32°45' E 152°45'34912.9
2015-Jul-26 15:33S 27°02' E 154°05'1613.1
2015-Jul-26 14:20S 26°46' E 154°05'  
Track history (hours):
 
Tides and Currents Weather Stations Pressure Air Temp Water Temp Dewpoint Dewpoint Depression Visibility Wind Speed Wind Dir Waves Ship Positions

High Tide

Last reported at 2015-Aug-03 03:19 UTC. Time now 2015-Aug-28 14:46 UTC.
Position S 32°35' E 152°53'.
Warning: this ship's position is 25 days out of date.

Length 183 m; draft 10.7 m.

Type: Tanker. MMSI: 636015337.

Date/timePositionNaut miles runAvg speedWind from/ knotsBaromVisibWave heightAir tempDewpointWater temp
2015-Aug-03 03:19S 32°35' E 152°53'810.6
2015-Aug-03 02:33S 32°42' E 152°49'1310.6
2015-Aug-03 01:21S 32°51' E 152°38'910.8
2015-Aug-03 00:30S 32°59' E 152°32'1111.6
2015-Aug-02 23:31S 33°07' E 152°23'  
2015-Jul-27 21:33S 33°07' E 152°21'10 9.9
2015-Jul-27 20:33S 32°60' E 152°29'1010.0
2015-Jul-27 19:33S 32°52' E 152°37'1010.2
2015-Jul-27 18:33S 32°45' E 152°45'34912.9
2015-Jul-26 15:33S 27°02' E 154°05'1613.1
2015-Jul-26 14:20S 26°46' E 154°05'  

Dump ship's entire track history